createdAt,value
2018-12-27T00:02:06.424Z,3.19
2018-12-27T00:04:34.581Z,3.17
2018-12-27T00:07:01.593Z,3.19
2018-12-27T00:09:28.671Z,3.18
2018-12-27T00:11:55.629Z,3.20
2018-12-27T00:14:22.545Z,3.18
2018-12-27T00:16:50.655Z,3.19
2018-12-27T00:19:17.463Z,3.17
2018-12-27T00:21:44.495Z,3.17
2018-12-27T00:24:11.463Z,3.18
2018-12-27T00:26:40.053Z,3.19
2018-12-27T00:29:07.138Z,3.20
2018-12-27T00:31:34.043Z,3.19
2018-12-27T00:34:01.021Z,3.20
2018-12-27T00:36:27.754Z,3.20
2018-12-27T00:38:54.557Z,3.20
2018-12-27T00:41:21.450Z,3.20
2018-12-27T00:43:50.150Z,3.20
2018-12-27T00:46:18.420Z,3.20
2018-12-27T00:48:45.445Z,3.20
2018-12-27T00:51:14.295Z,3.21
2018-12-27T00:53:41.083Z,3.23
2018-12-27T00:56:07.988Z,3.25
2018-12-27T00:58:34.937Z,3.26
2018-12-27T01:01:02.864Z,3.28
2018-12-27T01:03:29.777Z,3.29
2018-12-27T01:05:56.518Z,3.32
2018-12-27T01:08:23.357Z,3.36
2018-12-27T01:10:50.319Z,3.37
2018-12-27T01:13:17.390Z,3.39
2018-12-27T01:15:44.325Z,3.40
2018-12-27T01:18:11.355Z,3.42
2018-12-27T01:24:18.856Z,3.45
2018-12-27T01:26:45.651Z,3.45
2018-12-27T01:29:12.475Z,3.45
2018-12-27T01:31:39.465Z,3.47
2018-12-27T01:34:06.363Z,3.49
2018-12-27T01:36:33.414Z,3.50
2018-12-27T01:39:01.566Z,3.51
2018-12-27T01:41:28.318Z,3.52
2018-12-27T01:43:55.321Z,3.53
2018-12-27T01:46:22.303Z,3.54
2018-12-27T01:48:49.141Z,3.56
2018-12-27T01:51:15.908Z,3.55
2018-12-27T01:53:42.760Z,3.53
2018-12-27T01:56:10.132Z,3.51
2018-12-27T01:58:37.023Z,3.50
2018-12-27T02:01:04.047Z,3.53
2018-12-27T02:03:32.895Z,3.51
2018-12-27T02:05:59.900Z,3.53
2018-12-27T02:08:26.835Z,3.54
2018-12-27T02:10:53.607Z,3.56
2018-12-27T02:13:20.395Z,3.61
2018-12-27T02:15:47.425Z,3.59
2018-12-27T02:18:16.175Z,3.57
2018-12-27T02:20:42.907Z,3.57
2018-12-27T02:23:09.900Z,3.50
2018-12-27T02:25:49.125Z,3.48
2018-12-27T02:28:15.936Z,3.48
2018-12-27T02:30:42.962Z,3.48
2018-12-27T02:33:09.682Z,3.48
2018-12-27T02:35:36.603Z,3.48
2018-12-27T02:38:03.350Z,3.44
2018-12-27T02:40:30.148Z,3.44
2018-12-27T02:42:56.920Z,3.37
2018-12-27T02:45:23.625Z,3.26
2018-12-27T02:47:50.416Z,3.25
2018-12-27T02:50:17.219Z,3.21
2018-12-27T02:52:44.161Z,3.19
2018-12-27T02:55:11.116Z,3.13
2018-12-27T02:57:38.040Z,3.07
2018-12-27T03:00:04.920Z,3.05
2018-12-27T03:02:31.950Z,3.02
2018-12-27T03:04:58.893Z,2.99
2018-12-27T03:07:25.709Z,2.97
2018-12-27T03:09:52.888Z,2.94
2018-12-27T03:12:19.805Z,2.93
2018-12-27T03:14:46.754Z,2.91
2018-12-27T03:17:13.596Z,2.92
2018-12-27T03:19:40.462Z,2.94
2018-12-27T03:22:07.277Z,2.96
2018-12-27T03:24:34.251Z,2.98
2018-12-27T03:27:01.265Z,2.99
2018-12-27T03:29:27.963Z,2.98
2018-12-27T03:31:54.881Z,2.99
2018-12-27T03:34:23.639Z,3.00
2018-12-27T03:36:50.512Z,3.04
2018-12-27T03:39:17.421Z,3.06
2018-12-27T03:41:44.352Z,3.07
2018-12-27T03:44:11.083Z,3.03
2018-12-27T03:46:37.927Z,3.02
2018-12-27T03:49:04.677Z,3.02
2018-12-27T03:51:31.430Z,3.03
2018-12-27T03:53:58.882Z,3.02
2018-12-27T03:56:25.724Z,3.00
2018-12-27T03:58:52.553Z,3.00
2018-12-27T04:01:19.341Z,3.02
2018-12-27T04:03:46.192Z,3.00
2018-12-27T04:06:13.221Z,2.97
2018-12-27T04:08:40.118Z,2.93
2018-12-27T04:11:06.854Z,2.90
2018-12-27T04:13:33.683Z,2.84
2018-12-27T04:16:01.058Z,2.83
2018-12-27T04:18:28.422Z,2.83
2018-12-27T04:20:56.770Z,2.81
2018-12-27T04:23:23.944Z,2.77
2018-12-27T04:25:51.268Z,2.74
2018-12-27T04:28:18.190Z,2.72
2018-12-27T04:30:45.214Z,2.70
2018-12-27T04:33:13.703Z,2.73
2018-12-27T04:35:40.804Z,2.74
2018-12-27T04:38:07.769Z,2.74
2018-12-27T04:40:34.663Z,2.74
2018-12-27T04:43:01.609Z,2.75
2018-12-27T04:45:28.637Z,2.77
2018-12-27T04:47:55.673Z,2.79
2018-12-27T04:50:22.539Z,2.86
2018-12-27T04:52:49.362Z,2.92
2018-12-27T04:55:16.314Z,2.97
2018-12-27T04:57:43.341Z,3.03
2018-12-27T05:00:10.182Z,3.06
2018-12-27T05:02:37.366Z,3.09
2018-12-27T05:05:04.309Z,3.17
2018-12-27T05:07:31.132Z,3.20
2018-12-27T05:09:58.158Z,3.24
2018-12-27T05:12:25.200Z,3.28
2018-12-27T05:14:52.111Z,3.30
2018-12-27T05:17:19.180Z,3.34
2018-12-27T05:19:48.757Z,3.40
2018-12-27T05:22:15.755Z,3.44
2018-12-27T05:24:42.677Z,3.53
2018-12-27T05:27:09.866Z,3.58
2018-12-27T05:29:36.770Z,3.55
2018-12-27T05:32:04.754Z,3.55
2018-12-27T05:34:31.593Z,3.53
2018-12-27T05:37:00.886Z,3.51
2018-12-27T05:39:27.923Z,3.50
2018-12-27T05:41:54.788Z,3.46
2018-12-27T05:44:21.721Z,3.43
2018-12-27T05:46:48.858Z,3.41
2018-12-27T05:49:15.840Z,3.36
2018-12-27T05:51:42.743Z,3.34
2018-12-27T05:54:09.867Z,3.31
2018-12-27T05:56:38.735Z,3.26
2018-12-27T05:59:05.766Z,3.20
2018-12-27T06:01:34.644Z,3.14
2018-12-27T06:04:01.681Z,3.07
2018-12-27T06:06:28.677Z,3.03
2018-12-27T06:08:55.598Z,2.94
2018-12-27T06:11:22.573Z,2.87
2018-12-27T06:13:49.466Z,2.83
2018-12-27T06:16:16.368Z,2.79
2018-12-27T06:18:43.412Z,2.73
2018-12-27T06:21:10.497Z,2.70
2018-12-27T06:23:37.305Z,2.65
2018-12-27T06:26:04.144Z,2.62
2018-12-27T06:28:31.125Z,2.59
2018-12-27T06:30:58.092Z,2.56
2018-12-27T06:33:25.084Z,2.50
2018-12-27T06:35:52.042Z,2.43
2018-12-27T06:38:18.925Z,2.37
2018-12-27T06:40:45.910Z,2.30
2018-12-27T06:43:12.928Z,2.29
2018-12-27T06:45:39.780Z,2.25
2018-12-27T06:48:06.767Z,2.22
2018-12-27T06:50:33.710Z,2.19
2018-12-27T06:53:02.587Z,2.17
2018-12-27T06:55:29.585Z,2.14
2018-12-27T06:57:56.749Z,2.10
2018-12-27T07:00:24.998Z,2.07
2018-12-27T07:02:52.019Z,2.01
2018-12-27T07:05:19.009Z,1.89
2018-12-27T07:07:46.169Z,1.78
2018-12-27T07:10:13.284Z,1.77
2018-12-27T07:12:40.323Z,1.71
2018-12-27T07:15:07.398Z,1.72
2018-12-27T07:17:34.389Z,1.68
2018-12-27T07:20:01.517Z,1.66
2018-12-27T07:22:28.517Z,1.65
2018-12-27T07:24:55.560Z,1.61
2018-12-27T07:27:22.497Z,1.61
2018-12-27T07:29:49.641Z,1.61
2018-12-27T07:32:22.518Z,1.62
2018-12-27T07:34:56.283Z,1.69
2018-12-27T07:37:18.475Z,1.86
2018-12-27T07:39:45.492Z,1.98
2018-12-27T07:42:12.535Z,2.01
2018-12-27T07:44:39.636Z,2.05
2018-12-27T07:47:07.209Z,2.10
2018-12-27T07:49:34.310Z,2.15
2018-12-27T07:52:01.279Z,2.19
2018-12-27T07:54:28.405Z,2.17
2018-12-27T07:56:57.490Z,2.24
2018-12-27T07:59:24.435Z,2.32
2018-12-27T08:01:51.425Z,2.38
2018-12-27T08:04:18.517Z,2.42
2018-12-27T08:06:45.555Z,2.53
2018-12-27T08:09:12.456Z,2.57
2018-12-27T08:11:39.534Z,2.59
2018-12-27T08:14:06.649Z,2.75
2018-12-27T08:16:33.533Z,2.90
2018-12-27T08:19:00.925Z,2.98
2018-12-27T08:21:29.850Z,3.01
2018-12-27T08:23:56.976Z,3.06
2018-12-27T08:26:23.939Z,3.07
2018-12-27T08:28:52.164Z,3.13
2018-12-27T08:31:19.308Z,3.24
2018-12-27T08:33:46.377Z,3.23
2018-12-27T08:36:13.400Z,3.09
2018-12-27T08:38:40.467Z,2.98
2018-12-27T08:41:07.368Z,2.88
2018-12-27T08:43:34.445Z,2.83
2018-12-27T08:46:01.796Z,2.78
2018-12-27T08:48:30.072Z,2.77
2018-12-27T08:50:57.175Z,2.80
2018-12-27T08:53:24.259Z,2.80
2018-12-27T08:55:51.412Z,2.88
2018-12-27T08:58:18.591Z,3.00
2018-12-27T09:00:45.715Z,3.15
2018-12-27T09:03:12.771Z,3.29
2018-12-27T09:05:39.739Z,3.41
2018-12-27T09:08:06.592Z,3.59
2018-12-27T09:10:33.557Z,3.80
2018-12-27T09:13:00.471Z,4.08
2018-12-27T09:15:27.400Z,4.42
2018-12-27T09:17:54.339Z,4.66
2018-12-27T09:20:21.277Z,4.87
2018-12-27T09:22:48.851Z,5.00
2018-12-27T09:25:16.021Z,5.23
2018-12-27T09:27:44.807Z,5.39
2018-12-27T09:30:11.911Z,5.52
2018-12-27T09:32:38.990Z,5.52
2018-12-27T09:35:06.074Z,5.69
2018-12-27T09:37:33.553Z,5.93
2018-12-27T09:40:00.961Z,6.39
2018-12-27T09:42:27.957Z,6.69
2018-12-27T09:44:55.007Z,6.74
2018-12-27T09:47:21.986Z,6.65
2018-12-27T09:49:49.058Z,6.80
2018-12-27T09:52:16.105Z,6.92
2018-12-27T09:54:43.060Z,6.85
2018-12-27T09:57:11.742Z,6.98
2018-12-27T09:59:38.769Z,6.78
2018-12-27T10:02:05.787Z,6.87
2018-12-27T10:04:32.848Z,6.88
2018-12-27T10:06:59.929Z,6.90
2018-12-27T10:09:27.027Z,6.76
2018-12-27T10:11:54.092Z,6.24
2018-12-27T10:14:21.340Z,6.21
2018-12-27T10:16:59.999Z,6.12
2018-12-27T10:19:27.034Z,6.08
2018-12-27T10:21:54.161Z,6.19
2018-12-27T10:24:21.159Z,6.35
2018-12-27T10:26:48.210Z,6.25
2018-12-27T10:29:17.081Z,6.31
2018-12-27T10:31:44.179Z,6.38
2018-12-27T10:34:11.239Z,6.55
2018-12-27T10:36:38.326Z,6.73
2018-12-27T10:39:09.923Z,6.71
2018-12-27T10:41:37.043Z,6.73
2018-12-27T10:44:04.144Z,6.67
2018-12-27T10:46:33.072Z,6.74
2018-12-27T10:49:00.981Z,6.79
2018-12-27T10:51:28.061Z,6.86
2018-12-27T10:53:55.286Z,6.94
2018-12-27T10:56:23.527Z,7.02
2018-12-27T10:58:50.523Z,7.08
2018-12-27T11:01:17.544Z,7.11
2018-12-27T11:03:44.638Z,7.14
2018-12-27T11:06:11.646Z,7.16
2018-12-27T11:08:38.724Z,7.14
2018-12-27T11:11:06.037Z,6.97
2018-12-27T11:13:34.195Z,6.99
2018-12-27T11:16:01.239Z,6.99
2018-12-27T11:18:28.538Z,7.06
2018-12-27T11:20:55.656Z,7.09
2018-12-27T11:23:22.500Z,7.13
2018-12-27T11:25:49.326Z,7.10
2018-12-27T11:28:16.269Z,6.95
2018-12-27T11:30:43.097Z,6.98
2018-12-27T11:33:10.321Z,6.96
2018-12-27T11:35:37.371Z,6.96
2018-12-27T11:38:04.207Z,6.96
2018-12-27T11:40:46.049Z,6.97
2018-12-27T11:43:13.089Z,7.01
2018-12-27T11:45:40.187Z,6.89
2018-12-27T11:48:08.678Z,6.83
2018-12-27T11:50:35.737Z,6.77
2018-12-27T11:53:02.698Z,6.76
2018-12-27T11:55:29.765Z,6.68
2018-12-27T11:57:57.015Z,6.65
2018-12-27T12:00:25.059Z,6.64
2018-12-27T12:02:52.209Z,6.62
2018-12-27T12:05:19.471Z,6.57
2018-12-27T12:07:46.516Z,6.53
2018-12-27T12:10:13.564Z,6.48
2018-12-27T12:12:40.738Z,6.49
2018-12-27T12:15:08.055Z,6.47
2018-12-27T12:17:35.004Z,6.38
2018-12-27T12:20:02.039Z,6.43
2018-12-27T12:22:31.074Z,6.46
2018-12-27T12:24:58.114Z,6.45
2018-12-27T12:27:25.178Z,6.48
2018-12-27T12:29:52.278Z,6.46
2018-12-27T12:32:19.301Z,6.47
2018-12-27T12:34:46.288Z,6.51
2018-12-27T12:37:14.170Z,6.53
2018-12-27T12:39:41.618Z,6.52
2018-12-27T12:42:08.572Z,6.59
2018-12-27T12:44:35.586Z,6.66
2018-12-27T12:47:02.726Z,6.66
2018-12-27T12:49:29.748Z,6.71
2018-12-27T12:51:56.703Z,6.73
2018-12-27T12:54:23.735Z,6.77
2018-12-27T12:56:50.741Z,6.80
2018-12-27T12:59:17.720Z,6.86
2018-12-27T13:01:44.759Z,6.91
2018-12-27T13:04:11.919Z,6.96
2018-12-27T13:06:38.994Z,6.95
2018-12-27T13:09:07.081Z,7.00
2018-12-27T13:11:34.111Z,6.98
2018-12-27T13:14:01.013Z,7.02
2018-12-27T13:16:28.155Z,7.00
2018-12-27T13:18:55.143Z,7.02
2018-12-27T13:21:22.217Z,7.06
2018-12-27T13:23:49.278Z,7.01
2018-12-27T13:26:16.174Z,6.97
2018-12-27T13:28:43.195Z,6.97
2018-12-27T13:31:10.270Z,6.91
2018-12-27T13:33:37.288Z,6.88
2018-12-27T13:36:04.868Z,6.85
2018-12-27T13:38:31.848Z,6.83
2018-12-27T13:40:58.958Z,6.80
2018-12-27T13:43:27.204Z,6.76
2018-12-27T13:45:54.300Z,6.74
2018-12-27T13:48:21.211Z,6.73
2018-12-27T13:50:48.485Z,6.70
2018-12-27T13:53:16.927Z,6.66
2018-12-27T13:55:49.079Z,6.65
2018-12-27T13:58:21.068Z,6.64
2018-12-27T14:00:53.226Z,6.59
2018-12-27T14:03:33.067Z,6.54
2018-12-27T14:06:05.075Z,6.52
2018-12-27T14:08:38.053Z,6.52
2018-12-27T14:11:06.606Z,6.46
2018-12-27T14:13:41.908Z,6.43
2018-12-27T14:16:10.620Z,6.36
2018-12-27T14:18:37.623Z,6.33
2018-12-27T14:21:04.933Z,6.28
2018-12-27T14:23:36.586Z,6.23
2018-12-27T14:26:08.008Z,6.16
2018-12-27T14:28:36.386Z,6.11
2018-12-27T14:31:09.151Z,6.07
2018-12-27T14:33:54.144Z,6.03
2018-12-27T14:36:21.167Z,5.98
2018-12-27T14:38:48.289Z,5.90
2018-12-27T14:41:17.109Z,5.85
2018-12-27T14:43:44.062Z,5.81
2018-12-27T14:46:11.012Z,5.75
2018-12-27T14:48:44.355Z,5.71
2018-12-27T14:51:16.465Z,5.67
2018-12-27T14:53:45.684Z,5.61
2018-12-27T14:56:13.918Z,5.55
2018-12-27T14:58:45.687Z,5.48
2018-12-27T15:01:12.882Z,5.43
2018-12-27T15:03:40.384Z,5.34
2018-12-27T15:06:47.969Z,5.28
2018-12-27T15:09:15.599Z,5.22
2018-12-27T15:11:46.943Z,5.19
2018-12-27T15:14:14.494Z,5.14
2018-12-27T15:16:48.459Z,5.08
2018-12-27T15:19:28.076Z,5.00
2018-12-27T15:22:01.331Z,4.93
2018-12-27T15:24:35.231Z,4.85
2018-12-27T15:27:06.367Z,4.80
2018-12-27T15:29:33.379Z,4.74
2018-12-27T15:32:00.420Z,4.64
2018-12-27T15:34:27.351Z,4.57
2018-12-27T15:36:54.668Z,4.50
2018-12-27T15:39:23.624Z,4.42
2018-12-27T15:41:50.599Z,4.38
2018-12-27T15:44:17.476Z,4.35
2018-12-27T15:46:44.436Z,4.34
2018-12-27T15:49:11.360Z,4.33
2018-12-27T15:51:38.313Z,4.34
2018-12-27T15:54:05.294Z,4.34
2018-12-27T15:56:32.300Z,4.35
2018-12-27T15:58:59.257Z,4.35
2018-12-27T16:01:26.323Z,4.31
2018-12-27T16:04:05.228Z,4.25
2018-12-27T16:06:34.425Z,4.22
2018-12-27T16:09:04.672Z,4.18
2018-12-27T16:12:26.220Z,4.14
2018-12-27T16:14:53.029Z,4.10
2018-12-27T16:17:20.079Z,4.04
2018-12-27T16:19:48.393Z,3.98
2018-12-27T16:22:17.620Z,3.91
2018-12-27T16:24:51.158Z,3.87
2018-12-27T16:27:37.688Z,3.82
2018-12-27T16:30:07.793Z,3.74
2018-12-27T16:32:35.324Z,3.65
2018-12-27T16:35:04.461Z,3.54
2018-12-27T16:37:33.247Z,3.44
2018-12-27T16:40:01.604Z,3.42
2018-12-27T16:42:30.067Z,3.47
2018-12-27T16:45:14.205Z,3.49
2018-12-27T16:47:41.442Z,3.49
2018-12-27T16:50:09.419Z,3.46
2018-12-27T16:53:10.993Z,3.48
2018-12-27T16:55:44.042Z,3.44
2018-12-27T16:58:15.236Z,3.48
2018-12-27T17:00:44.995Z,3.54
2018-12-27T17:03:14.730Z,3.53
2018-12-27T17:05:44.477Z,3.52
2018-12-27T17:08:12.231Z,3.52
2018-12-27T17:10:39.240Z,3.50
2018-12-27T17:13:06.313Z,3.46
2018-12-27T17:15:35.614Z,3.47
2018-12-27T17:18:02.579Z,3.53
2018-12-27T17:20:29.702Z,3.59
2018-12-27T17:23:04.534Z,3.59
2018-12-27T17:26:16.030Z,3.57
2018-12-27T17:28:43.207Z,3.52
2018-12-27T17:31:10.146Z,3.42
2018-12-27T17:33:37.166Z,3.37
2018-12-27T17:36:03.986Z,3.33
2018-12-27T17:38:30.907Z,3.30
2018-12-27T17:40:57.827Z,3.27
2018-12-27T17:43:24.834Z,3.29
2018-12-27T17:45:51.660Z,3.30
2018-12-27T17:48:18.875Z,3.28
2018-12-27T17:50:47.119Z,3.20
2018-12-27T17:53:14.129Z,3.11
2018-12-27T17:55:41.245Z,3.09
2018-12-27T17:58:08.195Z,3.05
2018-12-27T18:00:35.255Z,3.03
2018-12-27T18:03:02.933Z,3.08
2018-12-27T18:05:30.188Z,3.07
2018-12-27T18:07:57.286Z,3.07
2018-12-27T18:10:26.608Z,3.09
2018-12-27T18:12:53.575Z,3.07
2018-12-27T18:15:20.677Z,3.08
2018-12-27T18:17:47.618Z,3.09
2018-12-27T18:20:15.246Z,3.11
2018-12-27T18:22:42.265Z,3.10
2018-12-27T18:25:09.287Z,3.11
2018-12-27T18:27:36.287Z,3.12
2018-12-27T18:30:03.697Z,3.16
2018-12-27T18:32:30.584Z,3.04
2018-12-27T18:34:57.415Z,2.99
2018-12-27T18:37:24.298Z,2.95
2018-12-27T18:39:51.295Z,2.95
2018-12-27T18:42:18.109Z,2.99
2018-12-27T18:44:45.079Z,3.01
2018-12-27T18:47:19.428Z,3.04
2018-12-27T18:49:46.542Z,3.06
2018-12-27T18:52:13.363Z,3.08
2018-12-27T18:54:40.375Z,3.08
2018-12-27T18:57:07.429Z,3.07
2018-12-27T18:59:34.243Z,3.07
2018-12-27T19:02:01.262Z,3.07
2018-12-27T19:04:28.193Z,3.07
2018-12-27T19:06:55.215Z,3.05
2018-12-27T19:09:22.227Z,2.98
2018-12-27T19:12:25.849Z,2.91
2018-12-27T19:14:57.161Z,2.91
2018-12-27T19:17:29.368Z,2.92
2018-12-27T19:19:56.417Z,2.95
2018-12-27T19:22:34.484Z,2.99
2018-12-27T19:25:01.413Z,3.05
2018-12-27T19:27:28.395Z,3.05
2018-12-27T19:29:55.389Z,3.06
2018-12-27T19:32:22.415Z,3.05
2018-12-27T19:34:49.363Z,3.03
2018-12-27T19:37:16.330Z,3.04
2018-12-27T19:39:43.258Z,3.05
2018-12-27T19:42:10.179Z,3.11
2018-12-27T19:44:37.203Z,3.14
2018-12-27T19:47:04.154Z,3.17
2018-12-27T19:49:31.305Z,3.21
2018-12-27T19:51:58.324Z,3.20
2018-12-27T19:54:31.755Z,3.19
2018-12-27T19:56:54.188Z,3.22
2018-12-27T19:59:21.148Z,3.26
2018-12-27T20:01:48.123Z,3.29
2018-12-27T20:04:16.866Z,3.30
2018-12-27T20:06:43.817Z,3.31
2018-12-27T20:09:12.178Z,3.32
2018-12-27T20:11:39.227Z,3.27
2018-12-27T20:14:06.363Z,3.24
2018-12-27T20:16:33.448Z,3.19
2018-12-27T20:19:00.812Z,3.16
2018-12-27T20:21:27.758Z,3.12
2018-12-27T20:23:54.771Z,3.04
2018-12-27T20:26:21.772Z,3.00
2018-12-27T20:28:48.668Z,2.96
2018-12-27T20:31:15.542Z,2.90
2018-12-27T20:33:42.512Z,2.93
2018-12-27T20:36:09.531Z,3.04
2018-12-27T20:38:36.807Z,3.13
2018-12-27T20:41:03.622Z,3.19
2018-12-27T20:43:30.611Z,3.26
2018-12-27T20:45:57.563Z,3.36
2018-12-27T20:48:24.636Z,3.43
2018-12-27T20:50:51.621Z,3.48
2018-12-27T20:53:20.700Z,3.51
2018-12-27T20:55:50.004Z,3.58
2018-12-27T20:58:19.230Z,3.69
2018-12-27T21:00:50.064Z,3.79
2018-12-27T21:03:23.837Z,3.87
2018-12-27T21:05:53.193Z,3.94
2018-12-27T21:08:22.764Z,3.93
2018-12-27T21:10:51.817Z,3.93
2018-12-27T21:13:21.068Z,3.87
2018-12-27T21:15:50.253Z,3.83
2018-12-27T21:18:19.521Z,3.79
2018-12-27T21:20:48.919Z,3.76
2018-12-27T21:23:18.154Z,3.64
2018-12-27T21:25:47.273Z,3.55
2018-12-27T21:28:16.346Z,3.50
2018-12-27T21:30:45.593Z,3.43
2018-12-27T21:33:15.084Z,3.42
2018-12-27T21:35:44.340Z,3.42
2018-12-27T21:38:13.671Z,3.42
2018-12-27T21:40:42.743Z,3.41
2018-12-27T21:43:11.881Z,3.37
2018-12-27T21:45:40.974Z,3.34
2018-12-27T21:48:10.124Z,3.33
2018-12-27T21:50:39.221Z,3.28
2018-12-27T21:53:08.322Z,3.23
2018-12-27T21:55:37.424Z,3.21
2018-12-27T21:58:06.536Z,3.21
2018-12-27T22:00:35.763Z,3.28
2018-12-27T22:03:05.004Z,3.31
2018-12-27T22:05:34.039Z,3.37
2018-12-27T22:08:04.515Z,3.43
2018-12-27T22:10:33.680Z,3.50
2018-12-27T22:13:02.783Z,3.53
2018-12-27T22:15:31.871Z,3.46
2018-12-27T22:18:01.256Z,3.41
2018-12-27T22:20:30.338Z,3.40
2018-12-27T22:22:59.534Z,3.39
2018-12-27T22:25:28.720Z,3.37
2018-12-27T22:27:58.154Z,3.43
2018-12-27T22:30:27.593Z,3.40
2018-12-27T22:32:56.776Z,3.33
2018-12-27T22:35:25.977Z,3.26
2018-12-27T22:37:55.102Z,3.20
2018-12-27T22:40:24.051Z,3.24
2018-12-27T22:42:53.190Z,3.22
2018-12-27T22:45:22.355Z,3.15
2018-12-27T22:47:51.492Z,3.11
2018-12-27T22:50:20.649Z,3.13
2018-12-27T22:52:49.775Z,3.17
2018-12-27T22:55:19.152Z,3.18
2018-12-27T22:57:49.105Z,3.22
2018-12-27T23:00:27.601Z,3.22
2018-12-27T23:02:56.644Z,3.24
2018-12-27T23:05:26.023Z,3.27
2018-12-27T23:07:55.184Z,3.27
2018-12-27T23:10:24.301Z,3.30
2018-12-27T23:12:53.336Z,3.25
2018-12-27T23:15:22.412Z,3.19
2018-12-27T23:17:52.888Z,3.15
2018-12-27T23:20:21.996Z,3.11
2018-12-27T23:22:51.060Z,3.05
2018-12-27T23:25:20.124Z,3.01
2018-12-27T23:27:49.155Z,2.91
2018-12-27T23:30:18.315Z,2.76
2018-12-27T23:32:47.387Z,2.66
2018-12-27T23:35:16.518Z,2.57
2018-12-27T23:37:45.621Z,2.52
2018-12-27T23:40:14.746Z,2.45
2018-12-27T23:42:43.904Z,2.46
2018-12-27T23:45:13.035Z,2.44
2018-12-27T23:47:42.063Z,2.36
2018-12-27T23:50:11.160Z,2.32
2018-12-27T23:52:40.131Z,2.27
2018-12-27T23:55:09.151Z,2.27
2018-12-27T23:57:38.281Z,2.24
